Sylvania, Ohio
Current Conditions -  °F | °C
As of 12:34 PM on Saturday 25 Oct 2014 (Local Time) from KDUH Reporting Station
Haze Haze  
Wind Chill: 61°   Ceiling: 1600
Heat Index: 61°   Visibility: 5mi
Dew Point: 54°   Wind: 9mph
Humidity: 77%   Direction: 250°WSW
Pressure: 29.84"   Gusts: NA
Location:  41.72°N, 83.7°W
Report Text: KDUH 251634Z AUTO 25008KT 5SM HZ BKN016 OVC022 16/12 A2984 RMK AO2
Loading
Personal Weather Stations






























Interactive Weather Map
Tropical Storm Tracking
New forecast layout! Learn more

10-Day Weather Forecast

Advertisements
Track Severe Weather on mobile